sensor_id;sensor_type;location;lat;lon;timestamp;P1;durP1;ratioP1;P2;durP2;ratioP2
37051;SDS011;22964;52.272;13.356;2023-02-15T00:01:33;18.05;;;9.38;;
37051;SDS011;22964;52.272;13.356;2023-02-15T00:03:59;19.17;;;9.63;;
37051;SDS011;22964;52.272;13.356;2023-02-15T00:06:25;20.90;;;10.57;;
37051;SDS011;22964;52.272;13.356;2023-02-15T00:08:51;21.77;;;9.82;;
37051;SDS011;22964;52.272;13.356;2023-02-15T00:11:18;19.70;;;10.43;;
37051;SDS011;22964;52.272;13.356;2023-02-15T00:14:04;20.65;;;10.15;;
37051;SDS011;22964;52.272;13.356;2023-02-15T00:16:34;20.50;;;9.30;;
37051;SDS011;22964;52.272;13.356;2023-02-15T00:19:00;17.52;;;9.85;;
37051;SDS011;22964;52.272;13.356;2023-02-15T00:21:27;20.60;;;10.02;;
37051;SDS011;22964;52.272;13.356;2023-02-15T00:23:55;18.73;;;9.32;;
37051;SDS011;22964;52.272;13.356;2023-02-15T00:26:22;18.80;;;9.52;;
37051;SDS011;22964;52.272;13.356;2023-02-15T00:28:48;18.50;;;9.35;;
37051;SDS011;22964;52.272;13.356;2023-02-15T00:31:14;18.70;;;9.13;;
37051;SDS011;22964;52.272;13.356;2023-02-15T00:33:40;19.38;;;9.68;;
37051;SDS011;22964;52.272;13.356;2023-02-15T00:36:06;19.25;;;9.95;;
37051;SDS011;22964;52.272;13.356;2023-02-15T00:38:33;16.40;;;8.98;;
37051;SDS011;22964;52.272;13.356;2023-02-15T00:41:00;19.65;;;9.93;;
37051;SDS011;22964;52.272;13.356;2023-02-15T00:43:28;20.10;;;8.85;;
37051;SDS011;22964;52.272;13.356;2023-02-15T00:45:55;17.15;;;8.93;;
37051;SDS011;22964;52.272;13.356;2023-02-15T00:48:20;17.25;;;8.27;;
37051;SDS011;22964;52.272;13.356;2023-02-15T00:50:48;13.32;;;7.07;;
37051;SDS011;22964;52.272;13.356;2023-02-15T00:53:16;19.38;;;8.48;;
37051;SDS011;22964;52.272;13.356;2023-02-15T00:55:42;15.48;;;8.10;;
37051;SDS011;22964;52.272;13.356;2023-02-15T00:58:08;18.60;;;9.30;;
37051;SDS011;22964;52.272;13.356;2023-02-15T01:00:35;16.75;;;8.63;;
37051;SDS011;22964;52.272;13.356;2023-02-15T01:03:01;17.95;;;8.18;;
37051;SDS011;22964;52.272;13.356;2023-02-15T01:05:27;18.83;;;9.48;;
37051;SDS011;22964;52.272;13.356;2023-02-15T01:07:55;23.83;;;10.68;;
37051;SDS011;22964;52.272;13.356;2023-02-15T01:10:21;22.27;;;9.98;;
37051;SDS011;22964;52.272;13.356;2023-02-15T01:12:47;24.77;;;11.50;;
37051;SDS011;22964;52.272;13.356;2023-02-15T01:15:13;24.75;;;12.20;;
37051;SDS011;22964;52.272;13.356;2023-02-15T01:17:39;27.83;;;12.98;;
37051;SDS011;22964;52.272;13.356;2023-02-15T01:20:05;21.88;;;11.20;;
37051;SDS011;22964;52.272;13.356;2023-02-15T01:22:32;16.58;;;8.63;;
37051;SDS011;22964;52.272;13.356;2023-02-15T01:24:58;15.40;;;8.88;;
37051;SDS011;22964;52.272;13.356;2023-02-15T01:27:23;22.38;;;9.70;;
37051;SDS011;22964;52.272;13.356;2023-02-15T01:29:49;17.98;;;10.77;;
37051;SDS011;22964;52.272;13.356;2023-02-15T01:32:15;16.02;;;8.85;;
37051;SDS011;22964;52.272;13.356;2023-02-15T01:34:42;23.63;;;11.85;;
37051;SDS011;22964;52.272;13.356;2023-02-15T01:37:07;26.05;;;12.35;;
37051;SDS011;22964;52.272;13.356;2023-02-15T01:39:33;23.48;;;11.98;;
37051;SDS011;22964;52.272;13.356;2023-02-15T01:41:59;24.67;;;11.70;;
37051;SDS011;22964;52.272;13.356;2023-02-15T01:50:12;21.92;;;10.80;;
37051;SDS011;22964;52.272;13.356;2023-02-15T01:52:49;22.20;;;10.60;;
37051;SDS011;22964;52.272;13.356;2023-02-15T01:55:23;21.17;;;10.50;;
37051;SDS011;22964;52.272;13.356;2023-02-15T01:57:51;20.90;;;11.02;;
37051;SDS011;22964;52.272;13.356;2023-02-15T02:00:18;22.38;;;10.70;;
37051;SDS011;22964;52.272;13.356;2023-02-15T02:02:46;20.33;;;10.18;;
37051;SDS011;22964;52.272;13.356;2023-02-15T02:05:15;20.08;;;10.70;;
37051;SDS011;22964;52.272;13.356;2023-02-15T02:07:43;21.65;;;10.20;;
37051;SDS011;22964;52.272;13.356;2023-02-15T02:10:12;23.52;;;11.05;;
37051;SDS011;22964;52.272;13.356;2023-02-15T02:12:40;21.92;;;10.90;;
37051;SDS011;22964;52.272;13.356;2023-02-15T02:15:09;23.58;;;10.50;;
37051;SDS011;22964;52.272;13.356;2023-02-15T02:20:59;20.88;;;10.73;;
37051;SDS011;22964;52.272;13.356;2023-02-15T02:37:14;23.38;;;11.38;;
37051;SDS011;22964;52.272;13.356;2023-02-15T02:47:38;32.92;;;15.35;;
37051;SDS011;22964;52.272;13.356;2023-02-15T02:50:16;31.48;;;14.13;;
37051;SDS011;22964;52.272;13.356;2023-02-15T02:52:48;29.02;;;14.02;;
37051;SDS011;22964;52.272;13.356;2023-02-15T02:55:17;29.00;;;13.70;;
37051;SDS011;22964;52.272;13.356;2023-02-15T02:58:05;32.13;;;14.88;;
37051;SDS011;22964;52.272;13.356;2023-02-15T03:00:49;30.13;;;13.77;;
37051;SDS011;22964;52.272;13.356;2023-02-15T03:05:45;29.08;;;13.88;;
37051;SDS011;22964;52.272;13.356;2023-02-15T03:08:16;29.60;;;14.10;;
37051;SDS011;22964;52.272;13.356;2023-02-15T03:10:47;32.22;;;14.55;;
37051;SDS011;22964;52.272;13.356;2023-02-15T03:13:16;32.95;;;15.02;;
37051;SDS011;22964;52.272;13.356;2023-02-15T03:15:42;34.53;;;15.75;;
37051;SDS011;22964;52.272;13.356;2023-02-15T03:18:34;33.97;;;15.82;;
37051;SDS011;22964;52.272;13.356;2023-02-15T03:21:07;35.70;;;15.23;;
37051;SDS011;22964;52.272;13.356;2023-02-15T03:23:35;32.22;;;15.25;;
37051;SDS011;22964;52.272;13.356;2023-02-15T03:26:05;33.13;;;14.13;;
37051;SDS011;22964;52.272;13.356;2023-02-15T03:28:43;35.53;;;14.32;;
37051;SDS011;22964;52.272;13.356;2023-02-15T03:31:12;28.83;;;13.02;;
37051;SDS011;22964;52.272;13.356;2023-02-15T03:33:42;31.00;;;14.48;;
37051;SDS011;22964;52.272;13.356;2023-02-15T03:36:29;30.58;;;14.68;;
37051;SDS011;22964;52.272;13.356;2023-02-15T03:42:17;33.55;;;14.52;;
37051;SDS011;22964;52.272;13.356;2023-02-15T03:44:54;36.63;;;14.60;;
37051;SDS011;22964;52.272;13.356;2023-02-15T03:47:27;38.10;;;16.05;;
37051;SDS011;22964;52.272;13.356;2023-02-15T03:52:51;38.83;;;16.30;;
37051;SDS011;22964;52.272;13.356;2023-02-15T03:55:17;33.20;;;15.30;;
37051;SDS011;22964;52.272;13.356;2023-02-15T03:57:43;35.35;;;15.15;;
37051;SDS011;22964;52.272;13.356;2023-02-15T04:00:28;35.30;;;15.02;;
37051;SDS011;22964;52.272;13.356;2023-02-15T04:05:41;34.28;;;15.48;;
37051;SDS011;22964;52.272;13.356;2023-02-15T04:08:08;34.92;;;15.43;;
37051;SDS011;22964;52.272;13.356;2023-02-15T04:10:34;37.13;;;15.75;;
37051;SDS011;22964;52.272;13.356;2023-02-15T04:13:22;35.08;;;15.93;;
37051;SDS011;22964;52.272;13.356;2023-02-15T04:15:50;40.72;;;17.42;;
37051;SDS011;22964;52.272;13.356;2023-02-15T04:18:28;42.22;;;17.13;;
37051;SDS011;22964;52.272;13.356;2023-02-15T04:21:19;40.28;;;17.27;;
37051;SDS011;22964;52.272;13.356;2023-02-15T04:24:04;41.10;;;16.95;;
37051;SDS011;22964;52.272;13.356;2023-02-15T04:26:48;42.17;;;16.35;;
37051;SDS011;22964;52.272;13.356;2023-02-15T04:29:17;40.72;;;16.35;;
37051;SDS011;22964;52.272;13.356;2023-02-15T04:31:44;41.30;;;15.20;;
37051;SDS011;22964;52.272;13.356;2023-02-15T04:34:10;36.65;;;14.30;;
37051;SDS011;22964;52.272;13.356;2023-02-15T04:36:36;48.05;;;15.02;;
37051;SDS011;22964;52.272;13.356;2023-02-15T04:39:03;35.80;;;14.70;;
37051;SDS011;22964;52.272;13.356;2023-02-15T04:41:29;36.70;;;14.38;;
37051;SDS011;22964;52.272;13.356;2023-02-15T04:43:55;43.97;;;16.05;;
37051;SDS011;22964;52.272;13.356;2023-02-15T04:46:21;36.20;;;14.15;;
37051;SDS011;22964;52.272;13.356;2023-02-15T04:48:47;34.83;;;13.75;;
37051;SDS011;22964;52.272;13.356;2023-02-15T04:51:13;30.10;;;14.05;;
37051;SDS011;22964;52.272;13.356;2023-02-15T04:53:38;38.40;;;13.90;;
37051;SDS011;22964;52.272;13.356;2023-02-15T04:56:04;39.35;;;13.02;;
37051;SDS011;22964;52.272;13.356;2023-02-15T04:58:30;33.75;;;13.63;;
37051;SDS011;22964;52.272;13.356;2023-02-15T05:00:56;36.60;;;13.63;;
37051;SDS011;22964;52.272;13.356;2023-02-15T05:03:22;38.17;;;14.20;;
37051;SDS011;22964;52.272;13.356;2023-02-15T05:05:49;41.40;;;15.38;;
37051;SDS011;22964;52.272;13.356;2023-02-15T05:08:14;34.13;;;13.95;;
37051;SDS011;22964;52.272;13.356;2023-02-15T05:10:40;40.45;;;13.52;;
37051;SDS011;22964;52.272;13.356;2023-02-15T05:13:06;45.75;;;14.15;;
37051;SDS011;22964;52.272;13.356;2023-02-15T05:15:31;46.78;;;14.27;;
37051;SDS011;22964;52.272;13.356;2023-02-15T05:17:57;43.20;;;14.00;;
37051;SDS011;22964;52.272;13.356;2023-02-15T05:20:23;41.05;;;14.00;;
37051;SDS011;22964;52.272;13.356;2023-02-15T05:22:48;31.98;;;13.63;;
37051;SDS011;22964;52.272;13.356;2023-02-15T05:25:18;29.50;;;13.68;;
37051;SDS011;22964;52.272;13.356;2023-02-15T05:28:02;29.45;;;13.63;;
37051;SDS011;22964;52.272;13.356;2023-02-15T05:30:50;31.17;;;13.88;;
37051;SDS011;22964;52.272;13.356;2023-02-15T05:33:26;30.02;;;13.23;;
37051;SDS011;22964;52.272;13.356;2023-02-15T05:35:51;25.60;;;11.73;;
37051;SDS011;22964;52.272;13.356;2023-02-15T05:38:17;25.42;;;12.10;;
37051;SDS011;22964;52.272;13.356;2023-02-15T05:40:43;24.10;;;11.40;;
37051;SDS011;22964;52.272;13.356;2023-02-15T05:43:09;24.80;;;11.88;;
37051;SDS011;22964;52.272;13.356;2023-02-15T05:45:34;27.83;;;11.93;;
37051;SDS011;22964;52.272;13.356;2023-02-15T05:48:00;26.00;;;12.02;;
37051;SDS011;22964;52.272;13.356;2023-02-15T05:50:26;27.98;;;12.32;;
37051;SDS011;22964;52.272;13.356;2023-02-15T05:52:51;25.75;;;12.23;;
37051;SDS011;22964;52.272;13.356;2023-02-15T05:55:17;24.52;;;11.40;;
37051;SDS011;22964;52.272;13.356;2023-02-15T05:57:43;26.73;;;12.13;;
37051;SDS011;22964;52.272;13.356;2023-02-15T06:00:09;25.90;;;12.25;;
37051;SDS011;22964;52.272;13.356;2023-02-15T06:02:39;25.00;;;12.43;;
37051;SDS011;22964;52.272;13.356;2023-02-15T06:05:05;26.98;;;12.63;;
37051;SDS011;22964;52.272;13.356;2023-02-15T06:07:31;27.23;;;12.63;;
37051;SDS011;22964;52.272;13.356;2023-02-15T06:09:57;27.33;;;12.45;;
37051;SDS011;22964;52.272;13.356;2023-02-15T06:12:23;26.10;;;11.32;;
37051;SDS011;22964;52.272;13.356;2023-02-15T06:14:49;28.10;;;11.80;;
37051;SDS011;22964;52.272;13.356;2023-02-15T06:17:15;26.88;;;12.05;;
37051;SDS011;22964;52.272;13.356;2023-02-15T06:19:42;23.35;;;11.43;;
37051;SDS011;22964;52.272;13.356;2023-02-15T06:22:08;30.38;;;12.95;;
37051;SDS011;22964;52.272;13.356;2023-02-15T06:24:33;26.10;;;11.68;;
37051;SDS011;22964;52.272;13.356;2023-02-15T06:26:59;26.23;;;12.40;;
37051;SDS011;22964;52.272;13.356;2023-02-15T06:29:25;24.58;;;11.43;;
37051;SDS011;22964;52.272;13.356;2023-02-15T06:31:51;24.60;;;11.27;;
37051;SDS011;22964;52.272;13.356;2023-02-15T06:34:16;27.42;;;11.50;;
37051;SDS011;22964;52.272;13.356;2023-02-15T06:36:42;27.83;;;11.98;;
37051;SDS011;22964;52.272;13.356;2023-02-15T06:39:08;25.85;;;12.07;;
37051;SDS011;22964;52.272;13.356;2023-02-15T06:41:33;26.70;;;11.52;;
37051;SDS011;22964;52.272;13.356;2023-02-15T06:43:59;24.92;;;11.73;;
37051;SDS011;22964;52.272;13.356;2023-02-15T06:46:25;30.45;;;12.57;;
37051;SDS011;22964;52.272;13.356;2023-02-15T06:48:51;28.00;;;11.40;;
37051;SDS011;22964;52.272;13.356;2023-02-15T06:51:17;33.08;;;13.38;;
37051;SDS011;22964;52.272;13.356;2023-02-15T06:53:42;26.67;;;11.80;;
37051;SDS011;22964;52.272;13.356;2023-02-15T06:56:09;29.33;;;12.52;;
37051;SDS011;22964;52.272;13.356;2023-02-15T06:58:36;28.70;;;12.88;;
37051;SDS011;22964;52.272;13.356;2023-02-15T07:01:02;27.50;;;12.27;;
37051;SDS011;22964;52.272;13.356;2023-02-15T07:03:29;26.95;;;12.02;;
37051;SDS011;22964;52.272;13.356;2023-02-15T07:05:59;28.05;;;12.85;;
37051;SDS011;22964;52.272;13.356;2023-02-15T07:08:26;27.60;;;12.50;;
37051;SDS011;22964;52.272;13.356;2023-02-15T07:10:53;28.73;;;13.00;;
37051;SDS011;22964;52.272;13.356;2023-02-15T07:13:20;28.80;;;13.30;;
37051;SDS011;22964;52.272;13.356;2023-02-15T07:15:46;30.23;;;13.38;;
37051;SDS011;22964;52.272;13.356;2023-02-15T07:18:12;31.17;;;11.75;;
37051;SDS011;22964;52.272;13.356;2023-02-15T07:20:39;29.98;;;11.73;;
37051;SDS011;22964;52.272;13.356;2023-02-15T07:23:07;34.25;;;13.05;;
37051;SDS011;22964;52.272;13.356;2023-02-15T07:25:34;23.77;;;11.18;;
37051;SDS011;22964;52.272;13.356;2023-02-15T07:28:00;26.90;;;11.52;;
37051;SDS011;22964;52.272;13.356;2023-02-15T07:30:27;29.27;;;11.68;;
37051;SDS011;22964;52.272;13.356;2023-02-15T07:32:55;25.40;;;11.75;;
37051;SDS011;22964;52.272;13.356;2023-02-15T07:35:46;29.02;;;12.52;;
37051;SDS011;22964;52.272;13.356;2023-02-15T07:38:13;27.95;;;12.07;;
37051;SDS011;22964;52.272;13.356;2023-02-15T07:40:39;32.35;;;12.15;;
37051;SDS011;22964;52.272;13.356;2023-02-15T07:43:05;33.85;;;12.40;;
37051;SDS011;22964;52.272;13.356;2023-02-15T07:45:31;28.52;;;11.75;;
37051;SDS011;22964;52.272;13.356;2023-02-15T07:47:56;29.83;;;12.65;;
37051;SDS011;22964;52.272;13.356;2023-02-15T07:50:22;30.50;;;12.13;;
37051;SDS011;22964;52.272;13.356;2023-02-15T07:52:48;30.55;;;12.38;;
37051;SDS011;22964;52.272;13.356;2023-02-15T07:55:14;30.77;;;11.77;;
37051;SDS011;22964;52.272;13.356;2023-02-15T07:57:43;24.30;;;11.65;;
37051;SDS011;22964;52.272;13.356;2023-02-15T08:00:10;28.45;;;11.55;;
37051;SDS011;22964;52.272;13.356;2023-02-15T08:02:38;25.50;;;12.15;;
37051;SDS011;22964;52.272;13.356;2023-02-15T08:05:04;24.75;;;11.48;;
37051;SDS011;22964;52.272;13.356;2023-02-15T08:07:31;25.80;;;11.90;;
37051;SDS011;22964;52.272;13.356;2023-02-15T08:09:56;29.92;;;13.48;;
37051;SDS011;22964;52.272;13.356;2023-02-15T08:12:25;31.55;;;12.18;;
37051;SDS011;22964;52.272;13.356;2023-02-15T08:14:52;28.05;;;12.77;;
37051;SDS011;22964;52.272;13.356;2023-02-15T08:17:17;27.25;;;12.90;;
37051;SDS011;22964;52.272;13.356;2023-02-15T08:19:43;28.15;;;12.73;;
37051;SDS011;22964;52.272;13.356;2023-02-15T08:22:10;28.75;;;13.60;;
37051;SDS011;22964;52.272;13.356;2023-02-15T08:24:39;31.15;;;13.32;;
37051;SDS011;22964;52.272;13.356;2023-02-15T08:27:06;37.58;;;14.68;;
37051;SDS011;22964;52.272;13.356;2023-02-15T08:29:34;29.67;;;13.38;;
37051;SDS011;22964;52.272;13.356;2023-02-15T08:32:02;31.63;;;13.52;;
37051;SDS011;22964;52.272;13.356;2023-02-15T08:34:34;36.22;;;14.65;;
37051;SDS011;22964;52.272;13.356;2023-02-15T08:37:01;31.70;;;13.63;;
37051;SDS011;22964;52.272;13.356;2023-02-15T08:39:27;35.67;;;14.13;;
37051;SDS011;22964;52.272;13.356;2023-02-15T08:41:53;29.40;;;13.38;;
37051;SDS011;22964;52.272;13.356;2023-02-15T08:44:20;28.42;;;13.30;;
37051;SDS011;22964;52.272;13.356;2023-02-15T08:46:46;29.52;;;13.35;;
37051;SDS011;22964;52.272;13.356;2023-02-15T08:49:15;25.48;;;12.30;;
37051;SDS011;22964;52.272;13.356;2023-02-15T08:51:45;30.60;;;13.20;;
37051;SDS011;22964;52.272;13.356;2023-02-15T08:54:13;27.92;;;13.00;;
37051;SDS011;22964;52.272;13.356;2023-02-15T08:56:41;27.13;;;12.60;;
37051;SDS011;22964;52.272;13.356;2023-02-15T08:59:11;31.05;;;13.65;;
37051;SDS011;22964;52.272;13.356;2023-02-15T09:01:38;30.60;;;13.55;;
37051;SDS011;22964;52.272;13.356;2023-02-15T09:04:05;29.95;;;13.77;;
37051;SDS011;22964;52.272;13.356;2023-02-15T09:06:35;29.17;;;13.55;;
37051;SDS011;22964;52.272;13.356;2023-02-15T09:09:02;30.33;;;13.25;;
37051;SDS011;22964;52.272;13.356;2023-02-15T09:11:30;30.15;;;13.55;;
37051;SDS011;22964;52.272;13.356;2023-02-15T09:13:59;28.75;;;13.73;;
37051;SDS011;22964;52.272;13.356;2023-02-15T09:16:27;33.55;;;14.45;;
37051;SDS011;22964;52.272;13.356;2023-02-15T09:18:55;28.83;;;13.65;;
37051;SDS011;22964;52.272;13.356;2023-02-15T09:21:26;29.52;;;13.10;;
37051;SDS011;22964;52.272;13.356;2023-02-15T09:23:55;29.80;;;13.25;;
37051;SDS011;22964;52.272;13.356;2023-02-15T09:26:23;29.55;;;13.88;;
37051;SDS011;22964;52.272;13.356;2023-02-15T09:28:53;30.33;;;13.73;;
37051;SDS011;22964;52.272;13.356;2023-02-15T09:31:21;27.13;;;13.40;;
37051;SDS011;22964;52.272;13.356;2023-02-15T09:33:52;32.13;;;14.25;;
37051;SDS011;22964;52.272;13.356;2023-02-15T09:36:22;32.17;;;14.32;;
37051;SDS011;22964;52.272;13.356;2023-02-15T09:38:52;27.27;;;12.82;;
37051;SDS011;22964;52.272;13.356;2023-02-15T10:17:09;30.05;;;14.15;;
37051;SDS011;22964;52.272;13.356;2023-02-15T10:19:50;24.70;;;12.57;;
37051;SDS011;22964;52.272;13.356;2023-02-15T10:25:09;24.90;;;12.07;;
37051;SDS011;22964;52.272;13.356;2023-02-15T10:27:54;25.80;;;12.55;;
37051;SDS011;22964;52.272;13.356;2023-02-15T10:30:30;23.10;;;11.90;;
37051;SDS011;22964;52.272;13.356;2023-02-15T10:36:09;21.45;;;11.40;;
37051;SDS011;22964;52.272;13.356;2023-02-15T10:45:05;27.00;;;13.52;;
37051;SDS011;22964;52.272;13.356;2023-02-15T10:58:49;23.02;;;12.30;;
37051;SDS011;22964;52.272;13.356;2023-02-15T11:06:46;23.05;;;11.35;;
37051;SDS011;22964;52.272;13.356;2023-02-15T11:09:17;21.42;;;12.05;;
37051;SDS011;22964;52.272;13.356;2023-02-15T11:11:48;24.38;;;12.85;;
37051;SDS011;22964;52.272;13.356;2023-02-15T11:16:46;25.45;;;13.90;;
37051;SDS011;22964;52.272;13.356;2023-02-15T11:19:28;25.27;;;13.40;;
37051;SDS011;22964;52.272;13.356;2023-02-15T11:22:02;22.65;;;12.60;;
37051;SDS011;22964;52.272;13.356;2023-02-15T11:24:32;20.58;;;12.07;;
37051;SDS011;22964;52.272;13.356;2023-02-15T11:29:59;22.85;;;12.82;;
37051;SDS011;22964;52.272;13.356;2023-02-15T11:32:30;22.05;;;12.40;;
37051;SDS011;22964;52.272;13.356;2023-02-15T11:35:00;21.75;;;12.27;;
37051;SDS011;22964;52.272;13.356;2023-02-15T11:37:43;24.77;;;13.07;;
37051;SDS011;22964;52.272;13.356;2023-02-15T11:40:17;20.40;;;11.65;;
37051;SDS011;22964;52.272;13.356;2023-02-15T11:42:58;21.70;;;11.73;;
37051;SDS011;22964;52.272;13.356;2023-02-15T11:45:31;22.08;;;12.15;;
37051;SDS011;22964;52.272;13.356;2023-02-15T11:47:59;20.65;;;12.10;;
37051;SDS011;22964;52.272;13.356;2023-02-15T11:50:27;19.58;;;11.27;;
37051;SDS011;22964;52.272;13.356;2023-02-15T11:52:58;19.07;;;10.97;;
37051;SDS011;22964;52.272;13.356;2023-02-15T11:55:31;16.15;;;9.93;;
37051;SDS011;22964;52.272;13.356;2023-02-15T11:58:04;19.83;;;11.02;;
37051;SDS011;22964;52.272;13.356;2023-02-15T12:00:45;17.10;;;9.60;;
37051;SDS011;22964;52.272;13.356;2023-02-15T12:05:43;14.48;;;9.18;;
37051;SDS011;22964;52.272;13.356;2023-02-15T12:10:40;16.17;;;9.82;;
37051;SDS011;22964;52.272;13.356;2023-02-15T12:13:16;17.70;;;10.02;;
37051;SDS011;22964;52.272;13.356;2023-02-15T12:15:45;16.88;;;9.85;;
37051;SDS011;22964;52.272;13.356;2023-02-15T12:21:11;17.10;;;10.35;;
37051;SDS011;22964;52.272;13.356;2023-02-15T12:23:43;16.00;;;9.63;;
37051;SDS011;22964;52.272;13.356;2023-02-15T12:26:13;16.45;;;9.57;;
37051;SDS011;22964;52.272;13.356;2023-02-15T12:28:44;17.85;;;9.63;;
37051;SDS011;22964;52.272;13.356;2023-02-15T12:31:24;14.80;;;8.85;;
37051;SDS011;22964;52.272;13.356;2023-02-15T12:34:02;15.25;;;8.90;;
37051;SDS011;22964;52.272;13.356;2023-02-15T12:36:48;13.75;;;8.60;;
37051;SDS011;22964;52.272;13.356;2023-02-15T12:39:20;13.80;;;8.65;;
37051;SDS011;22964;52.272;13.356;2023-02-15T12:49:23;14.15;;;8.05;;
37051;SDS011;22964;52.272;13.356;2023-02-15T12:51:50;13.82;;;8.15;;
37051;SDS011;22964;52.272;13.356;2023-02-15T12:54:27;12.55;;;8.00;;
37051;SDS011;22964;52.272;13.356;2023-02-15T12:57:43;11.43;;;7.25;;
37051;SDS011;22964;52.272;13.356;2023-02-15T13:02:24;11.07;;;6.50;;
37051;SDS011;22964;52.272;13.356;2023-02-15T13:04:51;10.02;;;6.30;;
37051;SDS011;22964;52.272;13.356;2023-02-15T13:07:18;9.82;;;6.00;;
37051;SDS011;22964;52.272;13.356;2023-02-15T13:09:45;10.68;;;6.00;;
37051;SDS011;22964;52.272;13.356;2023-02-15T13:14:49;9.20;;;5.70;;
37051;SDS011;22964;52.272;13.356;2023-02-15T13:17:17;9.98;;;5.38;;
37051;SDS011;22964;52.272;13.356;2023-02-15T13:19:50;9.70;;;5.03;;
37051;SDS011;22964;52.272;13.356;2023-02-15T13:22:20;7.65;;;4.72;;
37051;SDS011;22964;52.272;13.356;2023-02-15T13:24:53;8.40;;;5.10;;
37051;SDS011;22964;52.272;13.356;2023-02-15T13:27:44;8.60;;;5.20;;
37051;SDS011;22964;52.272;13.356;2023-02-15T13:30:13;9.18;;;5.47;;
37051;SDS011;22964;52.272;13.356;2023-02-15T13:33:03;10.32;;;5.18;;
37051;SDS011;22964;52.272;13.356;2023-02-15T13:50:31;6.32;;;3.30;;
37051;SDS011;22964;52.272;13.356;2023-02-15T13:53:17;5.13;;;3.60;;
37051;SDS011;22964;52.272;13.356;2023-02-15T13:55:51;6.47;;;3.80;;
37051;SDS011;22964;52.272;13.356;2023-02-15T13:58:39;7.15;;;3.60;;
37051;SDS011;22964;52.272;13.356;2023-02-15T14:25:52;6.43;;;3.92;;
37051;SDS011;22964;52.272;13.356;2023-02-15T14:28:27;8.13;;;5.10;;
37051;SDS011;22964;52.272;13.356;2023-02-15T14:30:55;8.82;;;4.68;;
37051;SDS011;22964;52.272;13.356;2023-02-15T14:33:30;7.72;;;4.00;;
37051;SDS011;22964;52.272;13.356;2023-02-15T14:36:10;7.50;;;4.72;;
37051;SDS011;22964;52.272;13.356;2023-02-15T14:38:47;7.82;;;5.15;;
37051;SDS011;22964;52.272;13.356;2023-02-15T14:41:53;6.65;;;4.22;;
37051;SDS011;22964;52.272;13.356;2023-02-15T14:44:38;7.00;;;4.40;;
37051;SDS011;22964;52.272;13.356;2023-02-15T14:47:09;7.53;;;4.05;;
37051;SDS011;22964;52.272;13.356;2023-02-15T14:49:41;5.90;;;3.80;;
37051;SDS011;22964;52.272;13.356;2023-02-15T14:52:07;5.45;;;3.53;;
37051;SDS011;22964;52.272;13.356;2023-02-15T15:04:37;5.75;;;3.88;;
37051;SDS011;22964;52.272;13.356;2023-02-15T15:07:21;7.25;;;3.92;;
37051;SDS011;22964;52.272;13.356;2023-02-15T15:09:59;5.45;;;3.65;;
37051;SDS011;22964;52.272;13.356;2023-02-15T15:12:41;5.75;;;4.15;;
37051;SDS011;22964;52.272;13.356;2023-02-15T15:15:13;5.30;;;3.40;;
37051;SDS011;22964;52.272;13.356;2023-02-15T15:17:58;5.40;;;3.60;;
37051;SDS011;22964;52.272;13.356;2023-02-15T15:31:15;6.63;;;3.40;;
37051;SDS011;22964;52.272;13.356;2023-02-15T15:42:30;5.15;;;3.60;;
37051;SDS011;22964;52.272;13.356;2023-02-15T15:50:27;5.75;;;3.65;;
37051;SDS011;22964;52.272;13.356;2023-02-15T15:52:54;7.15;;;4.60;;
37051;SDS011;22964;52.272;13.356;2023-02-15T15:55:24;6.00;;;3.92;;
37051;SDS011;22964;52.272;13.356;2023-02-15T15:57:53;9.95;;;4.22;;
37051;SDS011;22964;52.272;13.356;2023-02-15T16:00:48;7.05;;;4.40;;
37051;SDS011;22964;52.272;13.356;2023-02-15T16:03:21;6.00;;;3.75;;
37051;SDS011;22964;52.272;13.356;2023-02-15T16:05:48;5.30;;;3.70;;
37051;SDS011;22964;52.272;13.356;2023-02-15T16:10:53;6.32;;;3.78;;
37051;SDS011;22964;52.272;13.356;2023-02-15T16:13:19;4.93;;;3.38;;
37051;SDS011;22964;52.272;13.356;2023-02-15T16:15:46;5.63;;;3.30;;
37051;SDS011;22964;52.272;13.356;2023-02-15T16:18:18;6.70;;;3.08;;
37051;SDS011;22964;52.272;13.356;2023-02-15T16:20:58;5.00;;;3.07;;
37051;SDS011;22964;52.272;13.356;2023-02-15T16:23:40;6.63;;;2.78;;
37051;SDS011;22964;52.272;13.356;2023-02-15T16:29:29;5.30;;;3.25;;
37051;SDS011;22964;52.272;13.356;2023-02-15T16:32:04;5.03;;;2.90;;
37051;SDS011;22964;52.272;13.356;2023-02-15T16:34:33;6.75;;;3.38;;
37051;SDS011;22964;52.272;13.356;2023-02-15T16:37:17;5.75;;;3.15;;
37051;SDS011;22964;52.272;13.356;2023-02-15T16:39:47;5.88;;;3.20;;
37051;SDS011;22964;52.272;13.356;2023-02-15T16:42:16;6.43;;;3.03;;
37051;SDS011;22964;52.272;13.356;2023-02-15T16:44:43;5.10;;;2.88;;
37051;SDS011;22964;52.272;13.356;2023-02-15T16:47:15;4.95;;;2.90;;
37051;SDS011;22964;52.272;13.356;2023-02-15T16:49:48;5.95;;;2.95;;
37051;SDS011;22964;52.272;13.356;2023-02-15T16:52:20;5.10;;;3.05;;
37051;SDS011;22964;52.272;13.356;2023-02-15T16:54:56;7.22;;;3.22;;
37051;SDS011;22964;52.272;13.356;2023-02-15T16:57:30;4.78;;;3.08;;
37051;SDS011;22964;52.272;13.356;2023-02-15T17:00:06;4.60;;;3.00;;
37051;SDS011;22964;52.272;13.356;2023-02-15T17:02:42;5.65;;;3.28;;
37051;SDS011;22964;52.272;13.356;2023-02-15T17:13:37;5.47;;;3.15;;
37051;SDS011;22964;52.272;13.356;2023-02-15T17:20:58;6.82;;;4.78;;
37051;SDS011;22964;52.272;13.356;2023-02-15T17:23:40;5.97;;;3.90;;
37051;SDS011;22964;52.272;13.356;2023-02-15T17:26:15;5.78;;;3.88;;
37051;SDS011;22964;52.272;13.356;2023-02-15T17:28:56;5.45;;;3.28;;
37051;SDS011;22964;52.272;13.356;2023-02-15T17:31:26;6.95;;;3.90;;
37051;SDS011;22964;52.272;13.356;2023-02-15T17:33:58;6.72;;;3.63;;
37051;SDS011;22964;52.272;13.356;2023-02-15T17:36:26;5.80;;;3.63;;
37051;SDS011;22964;52.272;13.356;2023-02-15T17:41:21;7.72;;;5.18;;
37051;SDS011;22964;52.272;13.356;2023-02-15T17:43:54;8.40;;;5.60;;
37051;SDS011;22964;52.272;13.356;2023-02-15T17:46:21;8.25;;;4.10;;
37051;SDS011;22964;52.272;13.356;2023-02-15T17:48:47;8.23;;;4.20;;
37051;SDS011;22964;52.272;13.356;2023-02-15T17:51:15;7.15;;;4.53;;
37051;SDS011;22964;52.272;13.356;2023-02-15T17:53:42;6.20;;;4.25;;
37051;SDS011;22964;52.272;13.356;2023-02-15T17:56:27;7.90;;;4.60;;
37051;SDS011;22964;52.272;13.356;2023-02-15T17:58:52;9.63;;;6.22;;
37051;SDS011;22964;52.272;13.356;2023-02-15T18:01:18;7.35;;;4.72;;
37051;SDS011;22964;52.272;13.356;2023-02-15T18:04:03;7.35;;;4.43;;
37051;SDS011;22964;52.272;13.356;2023-02-15T18:06:51;7.43;;;4.78;;
37051;SDS011;22964;52.272;13.356;2023-02-15T18:09:35;7.65;;;5.00;;
37051;SDS011;22964;52.272;13.356;2023-02-15T18:12:21;7.35;;;4.93;;
37051;SDS011;22964;52.272;13.356;2023-02-15T18:14:47;7.47;;;4.75;;
37051;SDS011;22964;52.272;13.356;2023-02-15T18:17:14;7.78;;;4.57;;
37051;SDS011;22964;52.272;13.356;2023-02-15T18:19:41;8.60;;;5.18;;
37051;SDS011;22964;52.272;13.356;2023-02-15T18:22:12;8.40;;;5.28;;
37051;SDS011;22964;52.272;13.356;2023-02-15T18:24:41;7.80;;;5.20;;